Time;durP1;ratioP1;P1;durP2;ratioP2;P2;SDS_P1;SDS_P2;PMS_P1;PMS_P2;Temp;Humidity;BMP_temperature;BMP_pressure;BME280_temperature;BME280_humidity;BME280_pressure;Samples;Min_cycle;Max_cycle;Signal;HPM_P1;HPM_P2
2023/08/03 00:00:29;;;;;;;4.47;2.35;;;15.90;99.90;;;;;;4968895;28;20029;-83
2023/08/03 00:02:54;;;;;;;3.83;2.15;;;15.90;99.90;;;;;;4966857;28;20429;-83
2023/08/03 00:05:20;;;;;;;6.50;2.05;;;15.90;99.90;;;;;;4966178;28;20536;-83
2023/08/03 00:07:47;;;;;;;8.52;2.50;;;15.90;99.90;;;;;;4967851;28;20031;-83
2023/08/03 00:10:13;;;;;;;6.18;2.00;;;15.80;99.90;;;;;;4967953;28;20027;-83
2023/08/03 00:12:39;;;;;;;9.25;2.45;;;15.80;99.90;;;;;;4967391;28;20030;-83
2023/08/03 00:15:05;;;;;;;4.85;2.00;;;15.80;99.90;;;;;;4967454;28;20031;-83
2023/08/03 00:17:30;;;;;;;6.05;2.30;;;15.80;99.90;;;;;;4966440;28;20034;-83
2023/08/03 00:19:56;;;;;;;7.13;2.47;;;15.80;99.90;;;;;;4967035;28;20034;-84
2023/08/03 00:22:21;;;;;;;7.45;2.35;;;15.80;99.90;;;;;;4967829;28;20061;-83
2023/08/03 00:24:49;;;;;;;4.35;2.10;;;15.80;99.90;;;;;;4967247;28;20028;-83
2023/08/03 00:27:14;;;;;;;6.55;2.45;;;15.80;99.90;;;;;;4965948;28;20552;-83
2023/08/03 00:29:40;;;;;;;5.30;2.38;;;15.70;99.90;;;;;;4967094;28;20053;-83
2023/08/03 00:32:06;;;;;;;6.30;2.55;;;15.70;99.90;;;;;;4968115;28;20170;-83
2023/08/03 00:34:32;;;;;;;6.70;2.35;;;15.70;99.90;;;;;;4967392;28;20071;-83
2023/08/03 00:36:57;;;;;;;12.93;2.75;;;15.70;99.90;;;;;;4966599;28;20069;-83
2023/08/03 00:39:23;;;;;;;6.80;2.40;;;15.70;99.90;;;;;;4967312;28;20102;-83
2023/08/03 00:41:50;;;;;;;5.78;2.10;;;15.70;99.90;;;;;;4967170;28;20051;-83
2023/08/03 00:44:16;;;;;;;4.55;2.50;;;15.70;99.90;;;;;;4967287;28;20041;-83
2023/08/03 00:46:41;;;;;;;6.60;2.53;;;15.70;99.90;;;;;;4966696;28;21326;-83
2023/08/03 00:49:07;;;;;;;6.38;2.05;;;15.80;99.90;;;;;;4967121;28;20035;-83
2023/08/03 00:51:33;;;;;;;8.45;2.10;;;15.80;99.90;;;;;;4966575;28;20545;-83
2023/08/03 00:53:58;;;;;;;6.78;2.55;;;15.80;99.90;;;;;;4967815;28;20033;-83
2023/08/03 00:56:24;;;;;;;5.35;2.25;;;15.80;99.90;;;;;;4965418;28;20034;-83
2023/08/03 00:58:50;;;;;;;5.00;2.47;;;15.80;99.90;;;;;;4965124;28;20030;-83
2023/08/03 01:01:15;;;;;;;4.85;2.17;;;15.80;99.90;;;;;;4966905;28;21500;-83
2023/08/03 01:03:41;;;;;;;4.63;2.00;;;15.80;99.90;;;;;;4966704;28;20046;-83
2023/08/03 01:06:06;;;;;;;6.43;2.30;;;15.80;99.90;;;;;;4966198;28;20502;-83
2023/08/03 01:08:32;;;;;;;6.03;2.60;;;15.80;99.90;;;;;;4966028;28;20038;-83
2023/08/03 01:10:58;;;;;;;9.93;2.40;;;15.80;99.90;;;;;;4966243;28;20031;-83
2023/08/03 01:13:23;;;;;;;5.75;2.50;;;15.90;99.90;;;;;;4966707;28;20034;-84
2023/08/03 01:15:50;;;;;;;7.63;2.40;;;15.90;99.90;;;;;;4966531;28;20031;-83
2023/08/03 01:18:15;;;;;;;10.98;2.90;;;15.90;99.90;;;;;;4966344;28;20074;-83
2023/08/03 01:20:43;;;;;;;7.53;2.33;;;15.90;99.90;;;;;;4966379;28;20119;-83
2023/08/03 01:23:10;;;;;;;6.22;2.22;;;15.90;99.90;;;;;;4966188;28;20027;-84
2023/08/03 01:25:36;;;;;;;10.00;2.63;;;15.90;99.90;;;;;;4965854;28;20035;-83
2023/08/03 01:28:05;;;;;;;8.80;2.50;;;15.90;99.90;;;;;;4965116;28;20050;-83
2023/08/03 01:30:31;;;;;;;8.63;2.70;;;15.90;99.90;;;;;;4964605;28;20034;-83
2023/08/03 01:32:57;;;;;;;5.80;1.95;;;15.90;99.90;;;;;;4965729;28;20034;-83
2023/08/03 01:35:23;;;;;;;7.28;2.30;;;15.90;99.90;;;;;;4965422;28;20027;-84
2023/08/03 01:37:51;;;;;;;6.45;2.30;;;15.90;99.90;;;;;;4964753;28;20031;-83
2023/08/03 01:40:17;;;;;;;10.07;2.60;;;15.90;99.90;;;;;;4964456;28;20026;-83
2023/08/03 01:42:44;;;;;;;8.40;2.40;;;15.90;99.90;;;;;;4964467;28;20028;-83
2023/08/03 01:45:09;;;;;;;8.00;2.58;;;15.90;99.90;;;;;;4964220;28;20027;-83
2023/08/03 01:47:35;;;;;;;8.35;2.50;;;15.90;99.90;;;;;;4964682;28;20026;-83
2023/08/03 01:50:01;;;;;;;10.00;2.90;;;15.90;99.90;;;;;;4963250;28;20073;-83
2023/08/03 01:52:26;;;;;;;9.20;2.70;;;15.90;99.90;;;;;;4964393;28;20073;-83
2023/08/03 01:54:52;;;;;;;10.63;2.70;;;15.90;99.90;;;;;;4964273;28;21384;-83
2023/08/03 01:57:18;;;;;;;16.23;2.70;;;15.90;99.90;;;;;;4963803;28;20482;-83
2023/08/03 01:59:44;;;;;;;9.25;2.22;;;15.90;99.90;;;;;;4966814;28;20026;-83
2023/08/03 02:02:10;;;;;;;9.15;3.33;;;16.00;99.90;;;;;;4966893;28;20113;-83
2023/08/03 02:04:36;;;;;;;11.35;2.67;;;16.00;99.90;;;;;;4967280;28;20066;-83
2023/08/03 02:07:07;;;;;;;11.55;2.38;;;16.00;99.90;;;;;;4965950;28;20074;-83
2023/08/03 02:09:33;;;;;;;6.97;2.20;;;16.00;99.90;;;;;;4965926;28;20118;-83
2023/08/03 02:11:58;;;;;;;16.38;3.35;;;16.00;99.90;;;;;;4966406;28;20127;-83
2023/08/03 02:14:24;;;;;;;8.15;2.50;;;16.10;99.90;;;;;;4965204;28;20045;-83
2023/08/03 02:16:49;;;;;;;17.40;2.70;;;16.10;99.90;;;;;;4966692;28;20053;-83
2023/08/03 02:19:15;;;;;;;13.70;2.90;;;16.00;99.90;;;;;;4965048;28;20030;-83
2023/08/03 02:21:41;;;;;;;9.98;3.13;;;16.00;99.90;;;;;;4966149;28;20045;-84
2023/08/03 02:24:06;;;;;;;7.78;2.83;;;16.00;99.90;;;;;;4966526;28;20031;-83
2023/08/03 02:26:32;;;;;;;9.00;2.25;;;15.90;99.90;;;;;;4965452;28;20034;-84
2023/08/03 02:28:57;;;;;;;9.95;2.88;;;15.90;99.90;;;;;;4966855;28;20182;-83
2023/08/03 02:31:23;;;;;;;14.70;3.60;;;15.80;99.90;;;;;;4966402;28;20065;-83
2023/08/03 02:33:48;;;;;;;6.97;2.58;;;15.80;99.90;;;;;;4966495;28;20054;-83
2023/08/03 02:36:14;;;;;;;8.52;2.40;;;15.70;99.90;;;;;;4964813;28;20030;-83
2023/08/03 02:38:40;;;;;;;6.05;2.35;;;15.70;99.90;;;;;;4965815;28;20042;-83
2023/08/03 02:41:05;;;;;;;8.45;2.47;;;15.70;99.90;;;;;;4965371;28;20058;-83
2023/08/03 02:43:31;;;;;;;11.18;2.72;;;15.70;99.90;;;;;;4965861;28;20042;-83
2023/08/03 02:45:56;;;;;;;12.45;2.55;;;15.60;99.90;;;;;;4966043;28;20031;-83
2023/08/03 02:48:22;;;;;;;10.40;2.95;;;15.60;99.90;;;;;;4965503;28;20027;-83
2023/08/03 02:50:47;;;;;;;11.38;2.65;;;15.60;99.90;;;;;;4964790;28;20409;-83
2023/08/03 02:53:13;;;;;;;8.43;2.67;;;15.60;99.90;;;;;;4965772;28;20132;-83
2023/08/03 02:55:40;;;;;;;8.38;2.70;;;15.60;99.90;;;;;;4965811;28;20023;-83
2023/08/03 02:58:06;;;;;;;15.55;3.17;;;15.60;99.90;;;;;;4964574;28;20042;-83
2023/08/03 03:00:32;;;;;;;10.70;3.25;;;15.60;99.90;;;;;;4965819;28;20015;-83
2023/08/03 03:02:57;;;;;;;11.52;2.70;;;15.50;99.90;;;;;;4964828;28;20038;-84
2023/08/03 03:05:23;;;;;;;9.70;2.58;;;15.50;99.90;;;;;;4964636;28;20045;-84
2023/08/03 03:07:48;;;;;;;13.25;2.72;;;15.50;99.90;;;;;;4963496;28;20112;-83
2023/08/03 03:10:14;;;;;;;15.95;2.95;;;15.50;99.90;;;;;;4964835;28;20057;-84
2023/08/03 03:12:40;;;;;;;12.73;2.97;;;15.50;99.90;;;;;;4963841;28;20501;-83
2023/08/03 03:15:07;;;;;;;9.57;2.50;;;15.40;99.90;;;;;;4961964;28;20046;-83
2023/08/03 03:17:32;;;;;;;11.90;2.47;;;15.50;99.90;;;;;;4961109;28;20512;-82
2023/08/03 03:19:58;;;;;;;13.45;2.78;;;15.50;99.90;;;;;;4960282;28;20030;-83
2023/08/03 03:22:23;;;;;;;7.88;2.42;;;15.50;99.90;;;;;;4959626;28;20037;-83
2023/08/03 03:24:49;;;;;;;10.70;2.63;;;15.50;99.90;;;;;;4959560;28;20033;-83
2023/08/03 03:27:14;;;;;;;11.55;2.60;;;15.60;99.90;;;;;;4965483;28;20147;-83
2023/08/03 03:29:40;;;;;;;14.30;2.55;;;15.60;99.90;;;;;;4968020;28;20031;-84
2023/08/03 03:32:06;;;;;;;8.32;2.20;;;15.70;99.90;;;;;;4968083;28;20101;-84
2023/08/03 03:34:32;;;;;;;11.43;2.70;;;15.60;99.90;;;;;;4967371;28;20030;-84
2023/08/03 03:36:57;;;;;;;10.95;2.50;;;15.60;99.90;;;;;;4966174;28;20024;-84
2023/08/03 03:39:23;;;;;;;11.55;2.50;;;15.70;99.90;;;;;;4967783;28;20023;-84
2023/08/03 03:41:48;;;;;;;12.70;2.95;;;15.70;99.90;;;;;;4966790;28;20037;-83
2023/08/03 03:44:14;;;;;;;9.80;2.85;;;15.60;99.90;;;;;;4967205;28;20486;-84
2023/08/03 03:46:39;;;;;;;10.73;2.85;;;15.60;99.90;;;;;;4966152;28;20027;-84
2023/08/03 03:49:05;;;;;;;12.07;2.75;;;15.50;99.90;;;;;;4966530;28;20773;-84
2023/08/03 03:51:30;;;;;;;15.20;2.97;;;15.50;99.90;;;;;;4966175;28;20064;-84
2023/08/03 03:53:56;;;;;;;12.65;2.28;;;15.40;99.90;;;;;;4967649;28;20028;-83
2023/08/03 03:56:21;;;;;;;10.63;3.00;;;15.40;99.90;;;;;;4965230;28;20055;-83
2023/08/03 03:58:47;;;;;;;8.65;2.55;;;15.30;99.90;;;;;;4965159;28;20033;-84
2023/08/03 04:01:12;;;;;;;7.97;2.75;;;15.30;99.90;;;;;;4962091;28;20024;-83
2023/08/03 04:03:38;;;;;;;8.73;2.47;;;15.40;99.90;;;;;;4962919;28;20045;-84
2023/08/03 04:06:03;;;;;;;10.93;2.58;;;15.40;99.90;;;;;;4961159;28;20038;-84
2023/08/03 04:08:29;;;;;;;8.13;2.17;;;15.40;99.90;;;;;;4965930;28;20027;-90
2023/08/03 04:10:54;;;;;;;8.20;2.50;;;15.40;99.90;;;;;;4959521;28;20118;-84
2023/08/03 04:13:20;;;;;;;7.80;2.42;;;15.40;99.90;;;;;;4959354;28;20552;-84
2023/08/03 04:15:46;;;;;;;15.68;2.75;;;15.30;99.90;;;;;;4958883;28;20877;-84
2023/08/03 04:18:11;;;;;;;10.15;2.88;;;15.30;99.90;;;;;;4960305;28;20046;-84
2023/08/03 04:20:37;;;;;;;7.45;2.70;;;15.30;99.90;;;;;;4958660;28;20390;-84
2023/08/03 04:23:03;;;;;;;9.52;2.47;;;15.30;99.90;;;;;;4963382;28;20144;-83
2023/08/03 04:25:28;;;;;;;8.80;2.40;;;15.30;99.90;;;;;;4962043;28;20581;-84
2023/08/03 04:27:54;;;;;;;8.80;2.28;;;15.30;99.90;;;;;;4960521;28;20035;-85
2023/08/03 04:30:19;;;;;;;9.38;2.40;;;15.40;99.90;;;;;;4962039;28;20114;-84
2023/08/03 04:32:45;;;;;;;6.50;2.22;;;15.40;99.90;;;;;;4967433;28;20041;-84
2023/08/03 04:35:11;;;;;;;10.50;2.55;;;15.40;99.90;;;;;;4967020;28;20040;-84
2023/08/03 04:37:36;;;;;;;16.15;3.47;;;15.50;99.90;;;;;;4963480;28;20110;-84
2023/08/03 04:40:04;;;;;;;13.20;2.88;;;15.50;99.90;;;;;;4962199;28;20627;-84
2023/08/03 04:42:29;;;;;;;9.48;2.50;;;15.60;99.90;;;;;;4959832;28;20042;-85
2023/08/03 04:44:56;;;;;;;7.38;1.95;;;15.60;99.90;;;;;;4961083;28;20027;-85
2023/08/03 04:47:21;;;;;;;10.23;2.75;;;15.60;99.90;;;;;;4959915;28;21431;-84
2023/08/03 04:49:47;;;;;;;9.30;2.33;;;15.70;99.90;;;;;;4960079;28;20027;-84
2023/08/03 04:52:13;;;;;;;13.68;2.47;;;15.70;99.90;;;;;;4960531;28;20034;-84
2023/08/03 04:54:39;;;;;;;12.82;2.55;;;15.70;99.90;;;;;;4961141;28;20182;-84
2023/08/03 04:57:05;;;;;;;12.48;2.65;;;15.70;99.90;;;;;;4963332;28;20519;-84
2023/08/03 04:59:30;;;;;;;10.85;2.55;;;15.70;99.90;;;;;;4963899;28;20089;-84
2023/08/03 05:01:56;;;;;;;9.70;2.05;;;15.70;99.90;;;;;;4960698;28;20030;-84
2023/08/03 05:04:21;;;;;;;12.77;2.80;;;15.80;99.90;;;;;;4963278;28;20025;-84
2023/08/03 05:06:47;;;;;;;8.65;2.70;;;15.90;99.90;;;;;;4965621;28;20029;-85
2023/08/03 05:09:12;;;;;;;12.00;3.17;;;15.90;99.90;;;;;;4963823;28;20525;-75
2023/08/03 05:11:38;;;;;;;10.75;2.25;;;15.90;99.90;;;;;;4959299;28;20030;-85
2023/08/03 05:14:03;;;;;;;12.30;2.72;;;16.00;99.90;;;;;;4960445;28;20061;-84
2023/08/03 05:16:29;;;;;;;7.63;2.20;;;16.00;99.90;;;;;;4961516;28;20026;-84
2023/08/03 05:18:54;;;;;;;12.70;2.83;;;16.10;99.90;;;;;;4963189;28;20082;-85
2023/08/03 05:21:20;;;;;;;8.23;2.70;;;16.10;99.90;;;;;;4963466;28;20054;-83
2023/08/03 05:23:46;;;;;;;8.25;1.85;;;16.20;99.90;;;;;;4960002;28;20022;-85
2023/08/03 05:26:12;;;;;;;8.57;2.28;;;16.20;99.90;;;;;;4959721;28;20045;-84
2023/08/03 05:28:38;;;;;;;11.05;2.33;;;16.40;99.90;;;;;;4964710;28;20020;-85
2023/08/03 05:31:06;;;;;;;7.30;2.33;;;16.40;99.90;;;;;;4962893;28;20065;-83
2023/08/03 05:33:35;;;;;;;11.32;2.63;;;16.50;99.90;;;;;;4963938;28;20380;-84
2023/08/03 05:36:01;;;;;;;8.02;2.38;;;16.50;99.90;;;;;;4964698;28;20054;-84
2023/08/03 05:38:27;;;;;;;11.02;2.47;;;16.60;99.90;;;;;;4965651;28;20048;-85
2023/08/03 05:40:52;;;;;;;7.38;2.13;;;16.60;99.90;;;;;;4963948;28;20916;-84
2023/08/03 05:43:19;;;;;;;7.18;1.88;;;16.70;99.90;;;;;;4963175;28;20041;-84
2023/08/03 05:45:48;;;;;;;7.60;1.90;;;16.80;99.90;;;;;;4962350;28;20751;-83
2023/08/03 05:48:19;;;;;;;12.73;2.25;;;17.00;99.90;;;;;;4962965;28;20023;-83
2023/08/03 05:50:50;;;;;;;10.77;2.13;;;17.00;99.90;;;;;;4964021;28;20045;-83
2023/08/03 05:53:17;;;;;;;8.18;1.90;;;17.00;99.90;;;;;;4963899;28;20105;-83
2023/08/03 05:55:44;;;;;;;10.50;1.75;;;17.10;99.90;;;;;;4963315;28;20034;-84
2023/08/03 05:58:14;;;;;;;9.25;2.40;;;17.20;99.90;;;;;;4963473;28;20042;-82
2023/08/03 06:00:41;;;;;;;7.97;2.50;;;17.20;99.90;;;;;;4962784;28;20114;-83
2023/08/03 06:03:13;;;;;;;8.27;2.22;;;17.30;99.90;;;;;;4962264;28;20039;-82
2023/08/03 06:05:38;;;;;;;7.28;2.08;;;17.30;99.90;;;;;;4961566;28;20528;-83
2023/08/03 06:08:19;;;;;;;7.40;2.10;;;17.40;99.90;;;;;;4963104;28;20061;-83
2023/08/03 06:10:53;;;;;;;7.30;2.05;;;17.50;99.90;;;;;;4962424;28;20027;-83
2023/08/03 06:13:34;;;;;;;5.00;1.70;;;17.60;99.90;;;;;;4955318;28;20110;-83
2023/08/03 06:16:04;;;;;;;9.07;2.05;;;17.60;99.90;;;;;;4956936;28;20274;-84
2023/08/03 06:18:32;;;;;;;7.10;1.75;;;17.80;99.90;;;;;;4956969;28;20046;-82
2023/08/03 06:20:57;;;;;;;6.97;1.48;;;17.80;99.90;;;;;;4958360;28;20085;-83
2023/08/03 06:23:26;;;;;;;5.82;1.48;;;17.90;99.90;;;;;;4955044;28;20478;-83
2023/08/03 06:25:58;;;;;;;5.95;1.52;;;18.00;99.90;;;;;;4957992;28;20041;-83
2023/08/03 06:28:23;;;;;;;12.13;1.73;;;18.00;99.90;;;;;;4956722;28;20042;-85
2023/08/03 06:30:51;;;;;;;9.90;2.00;;;18.10;99.90;;;;;;4957202;28;20492;-85
2023/08/03 06:33:22;;;;;;;6.13;1.40;;;18.20;99.90;;;;;;4958299;28;20038;-83
2023/08/03 06:35:52;;;;;;;5.75;1.30;;;18.20;99.90;;;;;;4957207;28;20033;-85
2023/08/03 06:38:21;;;;;;;4.57;1.33;;;18.40;99.90;;;;;;4956624;28;20171;-83
2023/08/03 06:40:47;;;;;;;4.03;1.40;;;18.40;99.90;;;;;;4960170;28;20033;-83
2023/08/03 06:43:14;;;;;;;7.25;1.48;;;18.40;99.90;;;;;;4960151;28;20069;-83
2023/08/03 06:45:43;;;;;;;8.43;1.70;;;18.40;99.90;;;;;;4959651;28;20034;-82
2023/08/03 06:48:10;;;;;;;8.98;1.65;;;18.50;99.90;;;;;;4960176;28;20034;-82
2023/08/03 06:50:36;;;;;;;3.97;1.27;;;18.60;99.90;;;;;;4959890;28;20118;-83
2023/08/03 06:53:02;;;;;;;5.70;1.30;;;18.60;99.90;;;;;;4961786;28;20371;-84
2023/08/03 06:55:29;;;;;;;5.55;1.20;;;18.70;99.90;;;;;;4960004;28;20084;-84
2023/08/03 06:57:54;;;;;;;5.90;1.15;;;18.80;99.90;;;;;;4958394;28;20045;-83
2023/08/03 07:00:20;;;;;;;3.97;1.40;;;18.90;99.90;;;;;;4959119;28;20023;-82
2023/08/03 07:02:47;;;;;;;4.70;1.40;;;18.90;99.90;;;;;;4959868;28;20038;-83
2023/08/03 07:05:13;;;;;;;4.55;1.30;;;18.90;99.90;;;;;;4961029;28;20027;-82
2023/08/03 07:07:39;;;;;;;8.18;1.50;;;18.90;99.90;;;;;;4957352;28;21415;-84
2023/08/03 07:10:06;;;;;;;6.25;1.30;;;18.80;99.90;;;;;;4955733;28;20030;-83
2023/08/03 07:12:32;;;;;;;4.90;1.40;;;18.90;99.90;;;;;;4957071;28;20140;-83
2023/08/03 07:14:57;;;;;;;9.93;1.50;;;18.90;99.90;;;;;;4959142;28;20035;-83
2023/08/03 07:17:23;;;;;;;3.08;1.20;;;19.00;99.90;;;;;;4961974;28;20157;-83
2023/08/03 07:19:52;;;;;;;9.10;1.73;;;19.10;99.90;;;;;;4961907;28;20615;-83
2023/08/03 07:22:24;;;;;;;5.55;1.48;;;19.10;99.90;;;;;;4960264;28;20030;-82
2023/08/03 07:24:50;;;;;;;5.63;1.40;;;19.10;99.90;;;;;;4962472;28;20042;-84
2023/08/03 07:27:16;;;;;;;9.27;1.45;;;19.10;99.90;;;;;;4961315;28;20027;-83
2023/08/03 07:29:42;;;;;;;7.90;1.55;;;19.10;99.90;;;;;;4962272;28;20033;-84
2023/08/03 07:32:09;;;;;;;7.07;1.60;;;19.20;99.90;;;;;;4960065;28;20039;-83
2023/08/03 07:34:34;;;;;;;5.25;1.08;;;19.20;99.90;;;;;;4961456;28;20042;-83
2023/08/03 07:37:01;;;;;;;6.50;1.60;;;19.30;99.90;;;;;;4961899;28;20019;-83
2023/08/03 07:39:27;;;;;;;6.78;1.50;;;19.30;99.90;;;;;;4961320;28;20117;-83
2023/08/03 07:41:52;;;;;;;7.00;1.30;;;19.30;99.90;;;;;;4962111;28;20035;-83
2023/08/03 07:44:18;;;;;;;5.93;1.30;;;19.50;99.90;;;;;;4962015;28;20394;-83
2023/08/03 07:46:45;;;;;;;6.28;1.25;;;19.50;99.90;;;;;;4960891;28;21072;-83
2023/08/03 07:49:11;;;;;;;6.28;1.35;;;19.50;99.90;;;;;;4960266;28;20023;-83
2023/08/03 07:51:36;;;;;;;5.80;1.60;;;19.50;99.90;;;;;;4960422;28;20608;-82
2023/08/03 07:54:02;;;;;;;4.10;1.10;;;19.50;99.90;;;;;;4962444;28;20023;-83
2023/08/03 07:56:28;;;;;;;5.13;1.13;;;19.50;99.90;;;;;;4959999;28;20088;-83
2023/08/03 07:58:53;;;;;;;7.93;1.98;;;19.50;99.90;;;;;;4961990;28;20030;-85
2023/08/03 08:01:19;;;;;;;5.35;1.40;;;19.70;99.90;;;;;;4961478;28;21164;-85
2023/08/03 08:03:45;;;;;;;11.75;1.30;;;19.70;99.90;;;;;;4961496;28;20038;-84
2023/08/03 08:06:13;;;;;;;6.38;1.20;;;19.70;99.90;;;;;;4961136;28;20039;-83
2023/08/03 08:08:39;;;;;;;5.05;1.25;;;19.70;99.90;;;;;;4964593;28;20031;-83
2023/08/03 08:11:05;;;;;;;10.25;1.30;;;19.80;99.90;;;;;;4964899;28;20030;-83
2023/08/03 08:13:31;;;;;;;4.68;1.10;;;19.70;99.90;;;;;;4964191;28;20031;-85
2023/08/03 08:16:02;;;;;;;3.55;1.30;;;19.70;99.90;;;;;;4964777;28;20026;-83
2023/08/03 08:18:28;;;;;;;5.90;1.70;;;19.70;99.90;;;;;;4964154;28;20093;-83
2023/08/03 08:20:55;;;;;;;11.25;2.13;;;19.70;99.90;;;;;;4965260;28;20035;-84
2023/08/03 08:23:21;;;;;;;7.03;1.25;;;19.70;99.90;;;;;;4964402;28;20714;-83
2023/08/03 08:25:46;;;;;;;7.05;1.42;;;19.80;99.90;;;;;;4964420;28;20038;-83
2023/08/03 08:28:12;;;;;;;6.35;1.25;;;19.90;99.90;;;;;;4964497;28;20061;-83
2023/08/03 08:30:37;;;;;;;5.63;1.75;;;19.90;99.90;;;;;;4965454;28;20871;-83
2023/08/03 08:33:03;;;;;;;4.50;1.30;;;19.80;99.90;;;;;;4965732;28;20110;-83
2023/08/03 08:35:28;;;;;;;5.15;1.63;;;19.90;99.90;;;;;;4965043;28;20030;-83
2023/08/03 08:37:54;;;;;;;4.53;1.35;;;19.90;99.90;;;;;;4963821;28;20094;-85
2023/08/03 08:40:19;;;;;;;4.40;1.30;;;20.10;99.90;;;;;;4963773;28;20035;-83
2023/08/03 08:42:51;;;;;;;7.65;1.70;;;20.20;99.90;;;;;;4963374;28;20027;-84
2023/08/03 08:45:17;;;;;;;6.50;1.30;;;20.20;99.90;;;;;;4963866;28;20042;-83
2023/08/03 08:47:43;;;;;;;7.57;1.67;;;20.30;99.90;;;;;;4963819;28;20054;-82
2023/08/03 08:50:09;;;;;;;4.60;1.20;;;20.50;99.90;;;;;;4963980;28;20087;-83
2023/08/03 08:52:36;;;;;;;5.50;1.45;;;20.70;99.90;;;;;;4964725;28;20031;-84
2023/08/03 08:55:18;;;;;;;4.43;1.42;;;20.70;99.90;;;;;;4965185;28;20094;-82
2023/08/03 08:57:44;;;;;;;4.72;1.75;;;20.80;99.90;;;;;;4963539;28;20392;-82
2023/08/03 09:00:11;;;;;;;7.25;1.30;;;20.80;99.90;;;;;;4962437;28;20031;-83
2023/08/03 09:02:37;;;;;;;6.40;1.70;;;20.70;99.90;;;;;;4963764;28;20235;-83
2023/08/03 09:05:09;;;;;;;9.75;1.58;;;20.80;99.90;;;;;;4965586;28;20033;-83
2023/08/03 09:07:35;;;;;;;4.75;1.17;;;20.80;99.90;;;;;;4962507;28;20042;-83
2023/08/03 09:10:02;;;;;;;3.58;1.25;;;20.80;99.90;;;;;;4958996;28;20018;-75
2023/08/03 09:12:28;;;;;;;4.35;1.50;;;20.90;99.90;;;;;;4957643;28;20035;-76
2023/08/03 09:14:55;;;;;;;4.40;1.20;;;21.10;99.90;;;;;;4958782;28;20460;-75
2023/08/03 09:17:22;;;;;;;6.05;1.23;;;21.20;99.90;;;;;;4958431;28;20390;-75
2023/08/03 09:19:48;;;;;;;6.88;1.52;;;21.20;99.90;;;;;;4959421;28;20134;-75
2023/08/03 09:22:15;;;;;;;4.40;1.70;;;21.30;99.90;;;;;;4959191;28;20023;-75
2023/08/03 09:24:40;;;;;;;6.72;1.58;;;21.30;99.90;;;;;;4958132;28;20031;-75
2023/08/03 09:27:06;;;;;;;3.78;1.10;;;21.40;99.90;;;;;;4957958;28;20030;-75
2023/08/03 09:29:32;;;;;;;5.72;1.40;;;21.60;99.90;;;;;;4958158;28;20026;-75
2023/08/03 09:32:02;;;;;;;4.03;1.27;;;21.80;99.90;;;;;;4958947;28;20038;-75
2023/08/03 09:34:36;;;;;;;5.07;1.33;;;21.80;99.90;;;;;;4957610;28;20038;-76
2023/08/03 09:37:03;;;;;;;5.22;1.75;;;22.10;99.90;;;;;;4957902;28;20084;-75
2023/08/03 09:39:32;;;;;;;5.75;1.50;;;22.10;99.90;;;;;;4958024;28;20112;-74
2023/08/03 09:41:59;;;;;;;5.28;1.30;;;22.30;99.90;;;;;;4959796;28;20431;-75
2023/08/03 09:44:26;;;;;;;3.50;1.15;;;22.60;99.90;;;;;;4956953;28;20027;-75
2023/08/03 09:46:51;;;;;;;4.25;1.63;;;22.80;99.90;;;;;;4958428;28;20031;-75
2023/08/03 09:49:17;;;;;;;5.05;1.30;;;22.90;99.90;;;;;;4958262;28;20035;-75
2023/08/03 09:51:44;;;;;;;5.57;1.70;;;22.90;99.90;;;;;;4957910;28;20106;-75
2023/08/03 09:54:22;;;;;;;5.10;1.80;;;22.90;99.90;;;;;;4958747;28;20109;-74
2023/08/03 09:56:52;;;;;;;3.95;1.10;;;22.90;99.90;;;;;;4958954;28;20062;-75
2023/08/03 09:59:22;;;;;;;7.90;1.80;;;23.10;99.90;;;;;;4958785;28;20047;-76
2023/08/03 10:01:51;;;;;;;5.53;1.70;;;23.30;99.90;;;;;;4959128;28;20110;-74
2023/08/03 10:04:19;;;;;;;8.98;1.45;;;23.30;99.90;;;;;;4959011;28;20030;-74
2023/08/03 10:06:49;;;;;;;4.90;1.42;;;23.30;99.90;;;;;;4958064;28;20114;-76
2023/08/03 10:09:20;;;;;;;3.28;1.10;;;23.50;99.90;;;;;;4958134;28;20078;-76
2023/08/03 10:11:49;;;;;;;3.15;1.10;;;23.80;99.90;;;;;;4958431;28;20117;-75
2023/08/03 10:14:26;;;;;;;8.43;1.27;;;23.90;99.90;;;;;;4958592;28;20093;-76
2023/08/03 10:16:53;;;;;;;4.57;1.73;;;24.00;99.90;;;;;;4957537;28;20509;-76
2023/08/03 10:19:19;;;;;;;4.75;1.30;;;24.20;99.90;;;;;;4956765;28;20035;-76
2023/08/03 10:21:45;;;;;;;3.92;1.10;;;24.40;99.90;;;;;;4957742;28;20042;-76
2023/08/03 10:24:18;;;;;;;4.32;1.08;;;24.40;99.90;;;;;;4957632;28;20126;-75
2023/08/03 10:26:48;;;;;;;4.78;1.15;;;24.40;99.90;;;;;;4957566;28;20107;-76
2023/08/03 10:29:14;;;;;;;6.60;1.42;;;24.40;99.90;;;;;;4958096;28;20097;-76
2023/08/03 10:32:06;;;;;;;2.15;1.00;;;24.40;99.90;;;;;;4957696;28;20387;-76
2023/08/03 10:34:32;;;;;;;3.05;1.10;;;24.60;99.90;;;;;;4955862;28;20409;-76
2023/08/03 10:36:57;;;;;;;2.88;1.10;;;25.00;99.90;;;;;;4955365;28;20035;-76
2023/08/03 10:39:48;;;;;;;2.22;1.00;;;25.00;99.90;;;;;;4953209;28;20054;-76
2023/08/03 10:42:28;;;;;;;4.32;1.17;;;25.10;99.90;;;;;;4958183;28;20030;-76
2023/08/03 10:44:54;;;;;;;4.35;1.10;;;25.20;99.90;;;;;;4955090;28;20059;-74
2023/08/03 10:47:28;;;;;;;5.20;0.90;;;25.30;99.90;;;;;;4957048;28;20041;-76
2023/08/03 10:49:56;;;;;;;3.58;0.93;;;25.20;99.90;;;;;;4956642;28;20098;-76
2023/08/03 10:52:28;;;;;;;3.97;1.08;;;24.90;99.90;;;;;;4957511;28;20479;-85
2023/08/03 10:54:55;;;;;;;3.22;0.77;;;24.60;99.90;;;;;;4957781;28;20561;-77
2023/08/03 10:57:26;;;;;;;3.35;0.90;;;24.30;99.90;;;;;;4956638;28;20023;-77
2023/08/03 11:00:03;;;;;;;4.03;0.80;;;23.90;99.90;;;;;;4957163;28;20109;-77
2023/08/03 11:02:31;;;;;;;2.65;1.00;;;23.80;99.90;;;;;;4957781;28;21463;-78
2023/08/03 11:04:58;;;;;;;3.65;1.10;;;23.60;99.90;;;;;;4958196;28;21385;-79
2023/08/03 11:07:32;;;;;;;2.15;0.90;;;23.50;99.90;;;;;;4958244;28;20031;-77
2023/08/03 11:10:00;;;;;;;3.35;1.10;;;23.40;99.90;;;;;;4958199;28;20106;-76
2023/08/03 11:12:26;;;;;;;2.42;0.90;;;23.30;99.90;;;;;;4957455;28;20813;-76
2023/08/03 11:14:54;;;;;;;6.28;1.00;;;23.20;99.90;;;;;;4957810;28;20024;-77
2023/08/03 11:17:31;;;;;;;2.72;1.00;;;23.20;99.90;;;;;;4956421;28;20031;-77
2023/08/03 11:19:58;;;;;;;1.65;0.90;;;23.20;99.90;;;;;;4961908;28;20035;-84
2023/08/03 11:22:24;;;;;;;5.22;1.60;;;23.30;99.90;;;;;;4960470;28;20049;-83
2023/08/03 11:24:55;;;;;;;2.00;0.80;;;23.50;99.90;;;;;;4962086;28;21426;-83
2023/08/03 11:27:22;;;;;;;2.33;1.00;;;23.80;99.90;;;;;;4960259;28;20788;-84
2023/08/03 11:29:48;;;;;;;3.03;0.95;;;24.10;99.90;;;;;;4960117;28;20103;-84
2023/08/03 11:32:27;;;;;;;2.60;0.70;;;24.30;99.90;;;;;;4958089;28;20046;-83
2023/08/03 11:35:07;;;;;;;3.72;0.90;;;24.30;99.90;;;;;;4958728;28;20039;-84
2023/08/03 11:37:35;;;;;;;4.28;1.25;;;24.40;99.90;;;;;;4958214;28;20750;-83
2023/08/03 11:40:04;;;;;;;2.00;0.70;;;24.80;99.90;;;;;;4956639;28;20085;-85
2023/08/03 11:42:30;;;;;;;2.78;1.02;;;25.20;99.90;;;;;;4956243;28;20031;-83
2023/08/03 11:44:56;;;;;;;2.95;0.82;;;25.40;99.90;;;;;;4956932;28;21074;-84
2023/08/03 11:47:22;;;;;;;5.55;1.63;;;25.50;99.90;;;;;;4956419;28;20030;-83
2023/08/03 11:49:48;;;;;;;3.25;1.00;;;25.10;99.90;;;;;;4957223;28;20020;-85
2023/08/03 11:52:18;;;;;;;2.38;0.73;;;24.80;99.90;;;;;;4957792;28;20106;-85
2023/08/03 11:54:44;;;;;;;3.63;0.90;;;24.40;99.90;;;;;;4957874;28;20142;-83
2023/08/03 12:00:00;;;;;;;3.03;0.90;;;23.90;99.90;;;;;;4953499;28;20050;-84
2023/08/03 12:02:37;;;;;;;3.28;1.15;;;23.90;99.90;;;;;;4960076;28;20048;-83
2023/08/03 12:05:03;;;;;;;1.80;0.85;;;23.90;99.90;;;;;;4960595;28;20130;-84
2023/08/03 12:07:28;;;;;;;2.63;0.82;;;23.90;99.90;;;;;;4960164;28;21357;-83
2023/08/03 12:09:54;;;;;;;1.75;0.75;;;23.90;99.90;;;;;;4961390;28;20145;-83
2023/08/03 12:12:19;;;;;;;3.20;1.20;;;24.10;99.90;;;;;;4961909;28;20023;-83
2023/08/03 12:14:45;;;;;;;4.80;0.90;;;24.40;99.90;;;;;;4960974;28;20031;-84
2023/08/03 12:17:14;;;;;;;3.40;0.98;;;24.70;99.90;;;;;;4959113;28;20030;-84
2023/08/03 12:19:39;;;;;;;2.00;0.88;;;25.00;99.90;;;;;;4960971;28;20050;-85
2023/08/03 12:22:05;;;;;;;2.88;1.00;;;25.20;99.90;;;;;;4957511;28;20881;-77
2023/08/03 12:24:31;;;;;;;1.67;0.90;;;25.30;99.90;;;;;;4957030;28;20113;-75
2023/08/03 12:26:57;;;;;;;4.00;0.90;;;25.30;99.90;;;;;;4954459;28;20517;-76
2023/08/03 12:29:23;;;;;;;2.25;0.73;;;25.40;99.90;;;;;;4956585;28;20034;-77
2023/08/03 12:31:49;;;;;;;2.38;0.88;;;25.90;99.90;;;;;;4957489;28;20035;-76
2023/08/03 12:34:15;;;;;;;3.20;1.10;;;26.40;99.90;;;;;;4955574;28;20031;-77
2023/08/03 12:36:40;;;;;;;2.78;0.90;;;26.40;99.90;;;;;;4951185;28;21506;-76
2023/08/03 12:39:06;;;;;;;2.33;0.90;;;26.30;99.90;;;;;;4955781;28;20038;-76
2023/08/03 12:41:32;;;;;;;2.38;1.08;;;26.30;99.90;;;;;;4955692;28;20090;-77
2023/08/03 12:43:57;;;;;;;2.25;0.88;;;26.10;99.90;;;;;;4957027;28;20064;-77
2023/08/03 12:46:24;;;;;;;2.35;1.20;;;25.80;99.90;;;;;;4955417;28;20540;-76